createdAt,value
2022-12-14T00:03:24.817Z,45.50
2022-12-14T00:08:28.822Z,21.10
2022-12-14T00:13:34.098Z,19.80
2022-12-14T00:18:39.135Z,18.30
2022-12-14T00:23:45.510Z,12.30
2022-12-14T00:28:52.579Z,28.70
2022-12-14T00:33:56.960Z,29.10
2022-12-14T00:39:00.828Z,28.70
2022-12-14T00:44:05.057Z,26.20
2022-12-14T00:49:09.492Z,23.70
2022-12-14T00:54:13.386Z,24.20
2022-12-14T00:59:24.242Z,24.80
2022-12-14T01:04:31.274Z,21.30
2022-12-14T01:09:34.896Z,29.10
2022-12-14T01:14:38.739Z,28.20
2022-12-14T01:19:42.303Z,30.00
2022-12-14T01:24:46.093Z,29.80
2022-12-14T01:29:49.990Z,27.50
2022-12-14T01:34:53.926Z,26.40
2022-12-14T01:39:57.746Z,27.90
2022-12-14T01:45:01.574Z,27.90
2022-12-14T01:50:47.802Z,27.50
2022-12-14T01:55:56.599Z,27.20
2022-12-14T02:01:03.448Z,24.70
2022-12-14T02:06:14.809Z,20.20
2022-12-14T02:11:43.177Z,19.00
2022-12-14T02:16:50.307Z,23.00
2022-12-14T02:22:08.307Z,19.20
2022-12-14T02:27:28.028Z,19.30
2022-12-14T02:32:49.116Z,21.00
2022-12-14T02:38:01.645Z,20.60
2022-12-14T02:43:30.541Z,21.70
2022-12-14T02:48:49.589Z,19.70
2022-12-14T02:54:07.290Z,21.00
2022-12-14T02:59:12.082Z,26.10
2022-12-14T03:04:16.778Z,35.10
2022-12-14T03:09:20.714Z,40.60
2022-12-14T03:14:38.767Z,26.50
2022-12-14T03:19:53.452Z,23.50
2022-12-14T03:25:28.502Z,23.50
2022-12-14T03:30:59.289Z,26.10
2022-12-14T03:36:12.605Z,29.50
2022-12-14T03:41:43.363Z,39.90
2022-12-14T03:47:13.480Z,44.30
2022-12-14T03:52:39.857Z,23.70
2022-12-14T03:58:00.271Z,19.20
2022-12-14T04:03:41.697Z,33.00
2022-12-14T04:09:00.252Z,27.30
2022-12-14T04:14:35.880Z,24.20
2022-12-14T04:19:52.134Z,24.00
2022-12-14T04:25:23.709Z,18.00
2022-12-14T04:30:34.936Z,17.30
2022-12-14T04:35:42.837Z,21.60
2022-12-14T04:40:53.618Z,28.70
2022-12-14T04:46:24.302Z,32.70
2022-12-14T04:51:53.438Z,28.40
2022-12-14T04:57:19.347Z,33.20
2022-12-14T05:02:48.068Z,28.30
2022-12-14T05:08:54.235Z,8.90
2022-12-14T05:13:58.179Z,7.80
2022-12-14T05:19:02.194Z,10.70
2022-12-14T05:24:07.546Z,9.60
2022-12-14T05:29:11.681Z,14.80
2022-12-14T05:34:15.400Z,24.30
2022-12-14T05:39:19.223Z,15.10
2022-12-14T05:44:23.460Z,26.30
2022-12-14T05:49:27.188Z,24.30
2022-12-14T05:54:31.109Z,26.10
2022-12-14T05:59:34.835Z,32.50
2022-12-14T06:04:38.744Z,16.30
2022-12-14T06:09:42.851Z,16.00
2022-12-14T06:14:46.728Z,12.20
2022-12-14T06:19:50.446Z,16.50
2022-12-14T06:24:54.266Z,12.20
2022-12-14T06:29:58.107Z,13.60
2022-12-14T06:35:01.813Z,26.50
2022-12-14T06:40:06.646Z,29.60
2022-12-14T06:45:10.854Z,23.20
2022-12-14T06:50:14.413Z,47.90
2022-12-14T06:55:18.885Z,65.40
2022-12-14T07:00:25.465Z,63.20
2022-12-14T07:05:28.994Z,42.30
2022-12-14T07:10:32.388Z,31.20
2022-12-14T07:15:36.444Z,24.10
2022-12-14T07:20:40.226Z,21.90
2022-12-14T07:25:43.952Z,38.90
2022-12-14T07:30:47.851Z,51.00
2022-12-14T07:35:51.914Z,114.10
2022-12-14T07:40:55.439Z,107.50
2022-12-14T07:46:10.271Z,99.50
2022-12-14T07:51:17.743Z,60.00
2022-12-14T07:56:28.485Z,57.80
2022-12-14T08:01:35.483Z,50.10
2022-12-14T08:06:41.182Z,40.70
2022-12-14T08:11:45.407Z,42.50
2022-12-14T08:16:50.882Z,49.80
2022-12-14T08:21:55.272Z,46.10
2022-12-14T08:26:59.151Z,69.90
2022-12-14T08:32:03.171Z,122.70
2022-12-14T08:37:07.025Z,342.40
2022-12-14T08:42:10.512Z,79.10
2022-12-14T08:47:14.330Z,120.70
2022-12-14T08:52:18.285Z,40.50
2022-12-14T08:57:22.398Z,42.30
2022-12-14T09:02:26.386Z,62.00
2022-12-14T09:07:32.018Z,46.30
2022-12-14T09:12:36.745Z,61.90
2022-12-14T09:17:40.933Z,89.50
2022-12-14T09:22:44.909Z,43.60
2022-12-14T09:27:48.560Z,31.50
2022-12-14T09:32:52.233Z,77.30
2022-12-14T09:37:56.062Z,40.70
2022-12-14T09:43:06.779Z,44.90
2022-12-14T09:48:26.999Z,51.40
2022-12-14T09:53:31.966Z,52.50
2022-12-14T09:58:37.679Z,38.40
2022-12-14T10:03:47.159Z,31.60
2022-12-14T10:09:00.090Z,37.40
2022-12-14T10:14:28.183Z,35.50
2022-12-14T10:19:49.616Z,35.20
2022-12-14T10:25:23.101Z,34.10
2022-12-14T10:30:27.386Z,17.20
2022-12-14T10:35:51.608Z,39.00
2022-12-14T10:41:43.412Z,29.20
2022-12-14T10:47:32.407Z,34.10
2022-12-14T10:52:42.093Z,43.70
2022-12-14T10:57:45.783Z,37.10
2022-12-14T11:02:56.147Z,38.50
2022-12-14T11:08:00.402Z,43.30
2022-12-14T11:13:24.595Z,55.20
2022-12-14T11:18:31.948Z,41.10
2022-12-14T11:23:42.046Z,49.50
2022-12-14T11:29:00.958Z,46.90
2022-12-14T11:34:21.992Z,41.00
2022-12-14T11:39:26.535Z,55.20
2022-12-14T11:44:37.664Z,151.50
2022-12-14T11:49:41.563Z,44.50
2022-12-14T11:55:02.923Z,49.90
2022-12-14T12:00:25.037Z,50.90
2022-12-14T12:05:33.657Z,60.60
2022-12-14T12:10:49.987Z,65.70
2022-12-14T12:16:07.726Z,58.90
2022-12-14T12:21:23.452Z,74.20
2022-12-14T12:26:41.830Z,84.50
2022-12-14T12:32:27.214Z,87.40
2022-12-14T12:37:42.814Z,74.30
2022-12-14T12:43:05.075Z,84.30
2022-12-14T12:48:29.452Z,92.00
2022-12-14T12:53:46.680Z,78.60
2022-12-14T12:58:53.485Z,93.30
2022-12-14T13:04:20.110Z,39.40
2022-12-14T13:09:41.312Z,48.50
2022-12-14T13:14:50.315Z,44.30
2022-12-14T13:19:56.767Z,56.50
2022-12-14T13:25:16.234Z,31.50
2022-12-14T13:31:15.301Z,39.00
2022-12-14T13:36:49.699Z,94.00
2022-12-14T13:41:57.027Z,54.50
2022-12-14T13:47:05.612Z,60.20
2022-12-14T13:52:40.202Z,63.10
2022-12-14T13:57:43.967Z,114.00
2022-12-14T14:02:54.087Z,64.70
2022-12-14T14:08:06.610Z,35.20
2022-12-14T14:13:29.070Z,31.80
2022-12-14T14:18:46.035Z,25.80
2022-12-14T14:24:00.358Z,44.10
2022-12-14T14:29:26.524Z,27.70
2022-12-14T14:34:45.219Z,76.50
2022-12-14T14:40:22.159Z,57.30
2022-12-14T14:45:50.303Z,48.00
2022-12-14T14:51:34.163Z,47.60
2022-12-14T14:56:40.275Z,108.20
2022-12-14T15:01:52.526Z,92.20
2022-12-14T15:07:09.228Z,121.40
2022-12-14T15:12:44.509Z,174.80
2022-12-14T15:17:52.799Z,111.80
2022-12-14T15:23:00.020Z,111.50
2022-12-14T15:28:08.197Z,144.00
2022-12-14T15:33:35.261Z,191.90
2022-12-14T15:38:54.185Z,57.90
2022-12-14T15:44:02.393Z,48.80
2022-12-14T15:49:24.359Z,123.90
2022-12-14T15:54:35.980Z,272.90
2022-12-14T16:00:07.737Z,220.90
2022-12-14T16:05:26.114Z,129.50
2022-12-14T16:10:38.872Z,81.20
2022-12-14T16:15:49.759Z,183.80
2022-12-14T16:21:07.765Z,132.90
2022-12-14T16:26:16.696Z,124.90
2022-12-14T16:36:39.940Z,100.00
2022-12-14T16:42:07.227Z,109.00
2022-12-14T16:47:14.915Z,86.50
2022-12-14T16:52:34.622Z,67.00
2022-12-14T16:57:55.946Z,58.50
2022-12-14T17:03:23.414Z,127.50
2022-12-14T17:08:29.824Z,67.50
2022-12-14T17:13:34.668Z,105.50
2022-12-14T17:18:42.282Z,100.80
2022-12-14T17:23:47.441Z,64.70
2022-12-14T17:28:53.292Z,91.10
2022-12-14T17:33:58.215Z,75.30
2022-12-14T17:39:02.199Z,119.10
2022-12-14T17:44:07.829Z,85.20
2022-12-14T17:49:16.889Z,148.40
2022-12-14T17:54:23.461Z,264.30
2022-12-14T17:59:29.894Z,206.50
2022-12-14T18:04:34.303Z,107.90
2022-12-14T18:09:38.975Z,82.20
2022-12-14T18:14:43.840Z,59.40
2022-12-14T18:19:49.616Z,177.80
2022-12-14T18:24:54.251Z,162.20
2022-12-14T18:29:58.611Z,67.00
2022-12-14T18:35:03.235Z,203.70
2022-12-14T18:40:14.375Z,101.00
2022-12-14T18:45:23.955Z,145.10
2022-12-14T18:50:29.319Z,100.40
2022-12-14T18:55:34.260Z,65.10
2022-12-14T19:00:43.243Z,93.80
2022-12-14T19:05:50.985Z,115.40
2022-12-14T19:11:01.903Z,84.20
2022-12-14T19:16:16.636Z,103.00
2022-12-14T19:21:21.387Z,91.90
2022-12-14T19:26:25.047Z,87.90
2022-12-14T19:31:29.170Z,64.50
2022-12-14T19:36:33.363Z,115.70
2022-12-14T19:41:37.394Z,118.30
2022-12-14T19:46:41.286Z,91.70
2022-12-14T19:51:45.571Z,102.40
2022-12-14T19:56:54.610Z,75.30
2022-12-14T20:01:58.722Z,126.10
2022-12-14T20:07:02.937Z,189.50
2022-12-14T20:12:10.867Z,387.10
2022-12-14T20:17:14.849Z,184.20
2022-12-14T20:22:18.611Z,156.90
2022-12-14T20:27:22.364Z,248.50
2022-12-14T20:32:26.925Z,86.30
2022-12-14T20:37:31.267Z,37.60
2022-12-14T20:42:35.479Z,132.70
2022-12-14T20:47:40.651Z,115.30
2022-12-14T20:52:46.225Z,104.70
2022-12-14T20:57:54.480Z,89.20
2022-12-14T21:02:59.360Z,87.90
2022-12-14T21:08:04.545Z,78.20
2022-12-14T21:13:12.528Z,67.20
2022-12-14T21:18:16.379Z,59.00
2022-12-14T21:23:20.137Z,62.30
2022-12-14T21:28:27.522Z,58.80
2022-12-14T21:33:36.812Z,23.70
2022-12-14T21:38:41.220Z,65.90
2022-12-14T21:43:45.541Z,53.00
2022-12-14T21:48:48.979Z,60.60
2022-12-14T21:54:01.795Z,51.40
2022-12-14T21:59:05.720Z,67.30
2022-12-14T22:04:10.631Z,80.20
2022-12-14T22:09:14.150Z,72.80
2022-12-14T22:14:24.604Z,66.20
2022-12-14T22:19:29.239Z,60.40
2022-12-14T22:24:33.227Z,57.60
2022-12-14T22:29:37.170Z,62.20
2022-12-14T22:34:40.974Z,182.00
2022-12-14T22:39:47.709Z,88.70
2022-12-14T22:44:52.126Z,135.40
2022-12-14T22:49:55.970Z,87.50
2022-12-14T22:55:00.807Z,65.00
2022-12-14T23:00:12.206Z,58.30
2022-12-14T23:05:16.794Z,43.90
2022-12-14T23:10:40.034Z,44.80
2022-12-14T23:16:02.394Z,62.70
2022-12-14T23:21:32.839Z,48.40
2022-12-14T23:26:55.296Z,57.70
2022-12-14T23:32:18.577Z,50.30
2022-12-14T23:37:41.038Z,58.80
2022-12-14T23:43:03.300Z,54.60
2022-12-14T23:48:26.988Z,55.90
2022-12-14T23:53:50.185Z,156.80
2022-12-14T23:59:14.080Z,56.80
